Time;durP1;ratioP1;P1;durP2;ratioP2;P2;SDS_P1;SDS_P2;PMS_P1;PMS_P2;Temp;Humidity;BMP_temperature;BMP_pressure;BME280_temperature;BME280_humidity;BME280_pressure;Samples;Min_cycle;Max_cycle;Signal;HPM_P1;HPM_P2
2021/11/19 00:02:03;;;;;;;20.63;12.35;;;;;;;4.58;80.06;94212.44;5093584;28;20131;-41
2021/11/19 00:04:31;;;;;;;19.38;11.02;;;;;;;4.62;80.02;94209.47;5111763;28;20024;-44
2021/11/19 00:06:57;;;;;;;16.50;11.32;;;;;;;4.72;79.70;94216.19;5111618;28;20023;-44
2021/11/19 00:09:24;;;;;;;18.55;12.57;;;;;;;4.73;79.90;94214.22;5111292;28;20377;-43
2021/11/19 00:11:51;;;;;;;19.17;11.13;;;;;;;4.70;79.58;94217.94;5108939;28;20020;-44
2021/11/19 00:14:18;;;;;;;18.30;12.25;;;;;;;4.77;79.92;94226.41;5110954;28;20019;-44
2021/11/19 00:16:47;;;;;;;17.38;12.15;;;;;;;4.73;79.92;94214.22;5110748;28;20121;-44
2021/11/19 00:19:13;;;;;;;15.70;10.82;;;;;;;4.63;79.43;94206.22;5111083;28;20046;-46
2021/11/19 00:21:41;;;;;;;16.58;11.55;;;;;;;4.63;80.10;94212.94;5111326;28;20404;-42
2021/11/19 00:24:07;;;;;;;12.95;9.40;;;;;;;4.67;80.06;94210.72;5110842;28;20558;-45
2021/11/19 00:26:33;;;;;;;16.83;10.85;;;;;;;4.48;79.89;94188.53;5110848;28;20024;-44
2021/11/19 00:28:59;;;;;;;18.08;10.90;;;;;;;4.67;80.02;94218.94;5111264;28;20043;-44
2021/11/19 00:31:26;;;;;;;17.60;11.50;;;;;;;4.68;80.06;94228.66;5110820;28;20118;-46
2021/11/19 00:33:55;;;;;;;16.35;11.65;;;;;;;4.55;80.54;94204.44;5111203;28;20024;-43
2021/11/19 00:36:22;;;;;;;16.40;11.57;;;;;;;4.74;79.86;94224.69;5110806;28;20055;-43
2021/11/19 00:38:49;;;;;;;16.90;11.45;;;;;;;4.63;80.32;94228.09;5110881;28;20552;-42
2021/11/19 00:41:16;;;;;;;17.67;10.88;;;;;;;4.58;80.63;94228.84;5111260;28;20476;-44
2021/11/19 00:43:42;;;;;;;16.13;11.38;;;;;;;4.69;80.62;94232.84;5111029;28;20659;-42
2021/11/19 00:46:08;;;;;;;15.52;10.50;;;;;;;4.76;79.91;94232.41;5110723;28;20079;-40
2021/11/19 00:48:35;;;;;;;16.70;10.88;;;;;;;4.57;80.04;94207.44;5110929;28;20555;-41
2021/11/19 00:51:09;;;;;;;16.63;11.50;;;;;;;4.67;80.01;94227.13;5111251;28;20023;-41
2021/11/19 00:53:37;;;;;;;14.18;10.38;;;;;;;4.46;80.36;94208.16;5110832;28;20032;-41
2021/11/19 00:56:04;;;;;;;18.17;10.57;;;;;;;4.73;80.02;94230.63;5110840;28;20030;-41
2021/11/19 00:58:29;;;;;;;15.38;9.77;;;;;;;4.80;80.12;94224.69;5110740;28;20028;-41
2021/11/19 01:00:58;;;;;;;15.80;10.25;;;;;;;4.80;79.81;94222.72;5111055;28;20035;-42
2021/11/19 01:03:25;;;;;;;17.85;10.40;;;;;;;4.89;79.89;94229.94;5110650;28;20027;-41
2021/11/19 01:05:52;;;;;;;16.38;10.27;;;;;;;4.85;79.69;94232.19;5110811;28;20023;-41
2021/11/19 01:08:18;;;;;;;14.93;10.07;;;;;;;4.74;80.07;94219.22;5109654;28;20019;-41
2021/11/19 01:10:44;;;;;;;18.67;12.88;;;;;;;4.89;80.38;94224.47;5110923;28;20024;-41
2021/11/19 01:13:10;;;;;;;17.63;12.02;;;;;;;4.88;80.56;94231.19;5110824;28;20401;-41
2021/11/19 01:15:38;;;;;;;16.90;10.10;;;;;;;4.94;80.09;94223.72;5110625;28;20475;-41
2021/11/19 01:18:14;;;;;;;14.98;9.68;;;;;;;5.01;79.78;94223.25;5110737;28;20404;-41
2021/11/19 01:20:51;;;;;;;12.93;8.90;;;;;;;4.82;80.06;94203.81;5110904;28;20172;-44
2021/11/19 01:23:20;;;;;;;16.23;10.75;;;;;;;5.10;79.90;94214.81;5110392;28;20023;-44
2021/11/19 01:25:49;;;;;;;13.65;9.35;;;;;;;5.05;79.76;94202.63;5110390;28;20032;-43
2021/11/19 01:28:15;;;;;;;11.90;8.32;;;;;;;5.11;79.53;94211.59;5110462;28;20039;-44
2021/11/19 01:30:44;;;;;;;11.57;8.32;;;;;;;5.15;79.53;94214.09;5110459;28;20028;-45
2021/11/19 01:33:11;;;;;;;13.95;9.60;;;;;;;5.21;79.36;94220.31;5110328;28;20059;-43
2021/11/19 01:35:37;;;;;;;14.75;9.75;;;;;;;5.03;79.51;94205.09;5110552;28;20027;-44
2021/11/19 01:38:04;;;;;;;17.48;10.48;;;;;;;5.14;79.42;94215.31;5110594;28;20432;-43
2021/11/19 01:40:34;;;;;;;16.83;10.68;;;;;;;5.18;79.13;94215.81;5110654;28;20095;-43
2021/11/19 01:43:05;;;;;;;14.35;9.50;;;;;;;5.13;78.99;94222.78;5110351;28;20031;-44
2021/11/19 01:45:42;;;;;;;11.45;7.45;;;;;;;5.18;79.19;94213.09;5110358;28;20040;-43
2021/11/19 01:48:11;;;;;;;12.23;6.95;;;;;;;5.18;79.11;94211.09;5092182;28;20427;-45
2021/11/19 01:50:51;;;;;;;9.50;7.18;;;;;;;5.27;79.12;94212.84;5110508;28;20027;-42
2021/11/19 01:53:40;;;;;;;10.35;7.18;;;;;;;5.25;78.64;94204.41;5110478;28;20027;-42
2021/11/19 01:56:13;;;;;;;11.10;5.53;;;;;;;5.26;78.68;94200.44;5099504;28;20038;-42
2021/11/19 01:58:38;;;;;;;10.93;7.18;;;;;;;5.33;78.36;94197.94;5110120;28;20106;-42
2021/11/19 02:01:29;;;;;;;9.13;7.00;;;;;;;5.37;78.11;94203.19;5110415;28;20153;-42
2021/11/19 02:03:58;;;;;;;11.55;7.35;;;;;;;5.41;78.40;94202.94;5108823;28;20065;-41
2021/11/19 02:06:31;;;;;;;11.25;7.97;;;;;;;5.28;78.36;94200.69;5109902;28;20098;-42
2021/11/19 02:08:58;;;;;;;9.43;7.18;;;;;;;5.32;78.51;94204.66;5092047;28;20022;-42
2021/11/19 02:11:32;;;;;;;9.48;6.45;;;;;;;5.22;78.53;94211.59;5110236;28;20019;-43
2021/11/19 02:14:21;;;;;;;10.23;7.63;;;;;;;5.24;78.80;94202.91;5110229;28;20047;-43
2021/11/19 02:16:54;;;;;;;12.32;7.70;;;;;;;5.22;78.88;94200.66;5109347;28;20032;-41
2021/11/19 02:19:30;;;;;;;10.90;8.32;;;;;;;5.27;78.81;94202.66;5110297;28;20024;-41
2021/11/19 02:21:58;;;;;;;11.60;7.78;;;;;;;5.30;78.70;94198.94;5114067;28;20032;-42
2021/11/19 02:24:26;;;;;;;12.38;8.35;;;;;;;5.23;79.06;94199.44;5095555;28;20034;-41
2021/11/19 02:26:59;;;;;;;12.68;8.68;;;;;;;5.36;78.98;94193.47;5113882;28;20028;-41
2021/11/19 02:29:26;;;;;;;15.55;10.68;;;;;;;5.33;78.51;94186.97;5113408;28;20576;-41
2021/11/19 02:31:57;;;;;;;11.35;8.18;;;;;;;5.25;78.63;94194.19;5113883;28;20141;-41
2021/11/19 02:34:24;;;;;;;14.48;9.43;;;;;;;5.24;78.70;94195.44;5113595;28;20031;-41
2021/11/19 02:36:56;;;;;;;14.18;10.10;;;;;;;5.17;79.21;94192.44;5113829;28;20023;-43
2021/11/19 02:39:29;;;;;;;14.52;9.32;;;;;;;5.21;79.26;94192.94;5079069;28;20119;-43
2021/11/19 02:41:59;;;;;;;16.25;9.60;;;;;;;5.16;79.12;94180.00;5113457;28;20023;-43
2021/11/19 02:44:27;;;;;;;15.48;9.20;;;;;;;5.15;79.01;94179.25;5094635;28;20059;-43
2021/11/19 02:46:58;;;;;;;15.93;8.90;;;;;;;5.08;79.05;94179.75;5113303;28;20474;-46
2021/11/19 02:49:24;;;;;;;11.60;8.02;;;;;;;5.12;79.06;94184.97;5113170;28;20050;-42
2021/11/19 02:51:50;;;;;;;10.38;8.45;;;;;;;5.10;79.12;94185.47;5113505;28;20069;-42
2021/11/19 02:54:18;;;;;;;14.57;9.80;;;;;;;5.00;79.28;94184.19;5113385;28;20092;-43
2021/11/19 02:56:44;;;;;;;15.30;10.20;;;;;;;5.00;79.04;94180.72;5113162;28;20043;-43
2021/11/19 02:59:10;;;;;;;12.85;8.55;;;;;;;5.07;79.46;94191.16;5113064;28;20031;-42
2021/11/19 03:01:41;;;;;;;14.05;9.10;;;;;;;5.06;78.86;94192.44;5112857;28;20027;-42
2021/11/19 03:04:13;;;;;;;15.68;10.10;;;;;;;4.98;79.30;94185.94;5112944;28;20030;-42
2021/11/19 03:06:45;;;;;;;15.05;10.63;;;;;;;4.91;79.81;94191.91;5113265;28;20023;-41
2021/11/19 03:09:12;;;;;;;16.27;10.55;;;;;;;4.86;80.15;94190.63;5112771;28;20016;-41
2021/11/19 03:11:39;;;;;;;15.18;11.45;;;;;;;4.96;79.89;94178.22;5112843;28;20019;-42
2021/11/19 03:14:05;;;;;;;16.10;10.95;;;;;;;4.95;79.87;94182.22;5113043;28;20110;-42
2021/11/19 03:16:32;;;;;;;17.77;11.25;;;;;;;4.99;79.78;94177.25;5112879;28;20061;-42
2021/11/19 03:18:58;;;;;;;14.98;9.77;;;;;;;5.00;79.39;94178.00;5112648;28;20046;-42
2021/11/19 03:21:24;;;;;;;16.48;10.38;;;;;;;4.91;79.70;94183.69;5112528;28;20489;-41
2021/11/19 03:23:50;;;;;;;15.30;10.55;;;;;;;4.93;79.63;94183.94;5112765;28;20088;-43
2021/11/19 03:26:17;;;;;;;14.73;10.90;;;;;;;4.86;79.71;94181.69;5112813;28;20035;-42
2021/11/19 03:28:44;;;;;;;14.07;10.30;;;;;;;4.79;79.24;94163.00;5112843;28;20027;-42
2021/11/19 03:31:11;;;;;;;17.35;10.15;;;;;;;4.77;80.03;94179.91;5093643;28;20023;-42
2021/11/19 03:33:41;;;;;;;18.40;12.77;;;;;;;4.77;79.99;94179.16;5112485;28;20031;-41
2021/11/19 03:36:08;;;;;;;18.98;12.02;;;;;;;4.73;80.38;94175.94;5112328;28;20034;-43
2021/11/19 03:38:36;;;;;;;15.32;12.20;;;;;;;4.83;80.05;94180.66;5112451;28;20035;-41
2021/11/19 03:41:04;;;;;;;18.00;11.98;;;;;;;4.73;80.23;94170.44;5112600;28;20179;-42
2021/11/19 03:43:36;;;;;;;17.80;12.35;;;;;;;4.82;80.12;94173.72;5111829;28;20015;-42
2021/11/19 03:46:10;;;;;;;16.73;10.82;;;;;;;4.62;79.98;94173.91;5112217;28;20449;-43
2021/11/19 03:48:36;;;;;;;17.40;11.77;;;;;;;4.60;80.29;94179.88;5112309;28;20020;-42
2021/11/19 03:51:10;;;;;;;18.40;12.75;;;;;;;4.66;80.38;94170.94;5112047;28;20050;-42
2021/11/19 03:53:35;;;;;;;17.98;12.43;;;;;;;4.68;80.59;94168.47;5112259;28;20027;-42
2021/11/19 03:56:02;;;;;;;18.33;11.95;;;;;;;4.67;80.49;94175.91;5111969;28;20106;-43
2021/11/19 03:58:31;;;;;;;18.63;12.70;;;;;;;4.75;80.43;94174.19;5111791;28;20047;-42
2021/11/19 04:01:05;;;;;;;20.70;13.55;;;;;;;4.69;79.93;94178.91;5111779;28;20035;-42
2021/11/19 04:03:31;;;;;;;22.42;13.07;;;;;;;4.70;80.56;94182.41;5111753;28;20030;-42
2021/11/19 04:05:56;;;;;;;20.67;13.10;;;;;;;4.73;80.49;94179.41;5111866;28;20027;-42
2021/11/19 04:08:22;;;;;;;20.85;14.40;;;;;;;4.77;80.22;94171.72;5111986;28;20028;-42
2021/11/19 04:10:48;;;;;;;19.20;13.63;;;;;;;4.75;80.14;94170.72;5111964;28;20028;-42
2021/11/19 04:13:14;;;;;;;22.77;14.48;;;;;;;4.57;80.36;94175.38;5111521;28;20031;-42
2021/11/19 04:15:44;;;;;;;19.33;14.00;;;;;;;4.66;80.27;94177.16;5111542;28;20027;-42
2021/11/19 04:18:11;;;;;;;21.17;13.48;;;;;;;4.70;80.50;94166.72;5111500;28;20072;-42
2021/11/19 04:20:37;;;;;;;21.70;14.07;;;;;;;4.61;80.76;94164.22;5111236;28;20555;-42
2021/11/19 04:23:04;;;;;;;18.27;13.48;;;;;;;4.70;80.52;94161.25;5111461;28;20530;-41
2021/11/19 04:25:29;;;;;;;18.23;13.00;;;;;;;4.69;80.69;94159.75;5111250;28;20028;-41
2021/11/19 04:27:55;;;;;;;20.80;13.45;;;;;;;4.73;80.26;94165.72;5111319;28;20085;-42
2021/11/19 04:30:27;;;;;;;21.58;13.90;;;;;;;4.69;80.34;94159.75;5093263;28;20030;-42
2021/11/19 04:32:54;;;;;;;19.73;12.82;;;;;;;4.62;80.62;94160.22;5111193;28;20034;-41
2021/11/19 04:35:20;;;;;;;25.58;15.05;;;;;;;4.61;81.08;94159.47;5111433;28;20104;-41
2021/11/19 04:37:47;;;;;;;24.80;14.63;;;;;;;4.63;80.86;94159.00;5111110;28;20129;-42
2021/11/19 04:40:16;;;;;;;21.27;14.30;;;;;;;4.60;80.38;94168.94;5111083;28;20523;-42
2021/11/19 04:42:42;;;;;;;18.65;14.05;;;;;;;4.66;80.77;94165.47;5110602;28;20032;-41
2021/11/19 04:45:10;;;;;;;24.13;15.70;;;;;;;4.59;80.31;94167.44;5110100;28;20164;-41
2021/11/19 04:47:35;;;;;;;90.80;45.05;;;;;;;4.64;80.39;94171.44;5110718;28;20039;-41
2021/11/19 04:50:02;;;;;;;19.80;13.60;;;;;;;4.62;80.25;94162.97;5111017;28;20023;-42
2021/11/19 04:52:28;;;;;;;22.40;14.80;;;;;;;4.61;80.34;94162.22;5110870;28;20034;-41
2021/11/19 04:54:53;;;;;;;21.23;14.52;;;;;;;4.65;80.55;94167.47;5110904;28;20031;-41
2021/11/19 04:57:19;;;;;;;22.27;15.07;;;;;;;4.67;79.81;94164.22;5110604;28;20032;-43
2021/11/19 04:59:45;;;;;;;20.65;13.77;;;;;;;4.68;79.53;94165.72;5110868;28;20031;-44
2021/11/19 05:02:15;;;;;;;22.27;14.95;;;;;;;4.76;79.51;94180.41;5110890;28;20026;-43
2021/11/19 05:04:41;;;;;;;26.95;18.15;;;;;;;4.75;79.58;94167.97;5111168;28;20028;-44
2021/11/19 05:07:07;;;;;;;21.67;15.32;;;;;;;4.66;79.42;94174.41;5110793;28;20390;-45
2021/11/19 05:09:34;;;;;;;44.60;25.88;;;;;;;4.72;79.58;94174.44;5107767;28;20024;-44
2021/11/19 05:12:05;;;;;;;71.05;37.58;;;;;;;4.65;80.17;94172.94;5099771;28;20468;-44
2021/11/19 05:14:32;;;;;;;28.95;19.50;;;;;;;4.74;79.84;94171.97;5101718;28;20408;-44
2021/11/19 05:16:58;;;;;;;124.40;66.82;;;;;;;4.74;79.77;94182.91;5096023;28;20038;-44
2021/11/19 05:19:24;;;;;;;46.38;28.35;;;;;;;4.76;79.55;94186.66;5110296;28;20027;-44
2021/11/19 05:21:49;;;;;;;30.00;19.30;;;;;;;4.59;79.51;94166.69;5110537;28;20028;-44
2021/11/19 05:24:15;;;;;;;33.53;21.83;;;;;;;4.76;79.39;94188.63;5110480;28;20031;-45
2021/11/19 05:26:44;;;;;;;25.50;16.98;;;;;;;4.85;78.75;94183.66;5110413;28;20073;-43
2021/11/19 05:29:10;;;;;;;26.35;17.35;;;;;;;4.62;79.42;94187.56;5110483;28;20057;-45
2021/11/19 05:31:36;;;;;;;26.88;16.88;;;;;;;4.67;79.29;94189.59;5099707;28;20109;-44
2021/11/19 05:34:03;;;;;;;32.22;21.83;;;;;;;4.68;79.39;94184.88;5090186;28;20047;-44
2021/11/19 05:36:28;;;;;;;31.05;20.98;;;;;;;4.63;79.18;94184.34;5090040;28;20054;-44
2021/11/19 05:38:54;;;;;;;28.25;19.33;;;;;;;4.59;79.22;94197.50;5090237;28;20032;-44
2021/11/19 05:41:22;;;;;;;27.23;18.23;;;;;;;4.57;79.68;94205.47;5089882;28;20497;-43
2021/11/19 05:43:49;;;;;;;30.88;17.00;;;;;;;4.68;79.12;94201.28;5101591;28;20034;-43
2021/11/19 05:46:18;;;;;;;27.25;18.08;;;;;;;4.61;79.15;94197.03;5110072;28;20468;-41
2021/11/19 05:48:44;;;;;;;29.42;17.92;;;;;;;4.69;78.83;94194.56;5107637;28;20111;-41
2021/11/19 05:51:11;;;;;;;30.77;19.63;;;;;;;4.63;78.79;94195.28;5092106;28;20027;-42
2021/11/19 05:53:36;;;;;;;29.95;20.27;;;;;;;4.61;79.31;94197.75;5087476;28;20505;-41
2021/11/19 05:56:02;;;;;;;32.40;20.35;;;;;;;4.70;79.16;94205.00;5090589;28;20024;-41
2021/11/19 05:58:27;;;;;;;35.30;21.35;;;;;;;4.67;78.76;94208.75;5091528;28;20028;-41
2021/11/19 06:00:59;;;;;;;31.52;18.73;;;;;;;4.60;79.16;94201.75;5091501;28;20035;-41
2021/11/19 06:03:25;;;;;;;28.90;19.23;;;;;;;4.61;79.38;94197.75;5091208;28;20027;-42
2021/11/19 06:05:51;;;;;;;49.53;29.90;;;;;;;4.55;79.45;94198.97;5095189;28;20386;-42
2021/11/19 06:08:16;;;;;;;29.55;18.75;;;;;;;4.59;79.42;94200.25;5111845;28;20031;-41
2021/11/19 06:10:53;;;;;;;31.08;20.92;;;;;;;4.58;79.25;94198.00;5112143;28;20031;-41
2021/11/19 06:13:30;;;;;;;28.95;18.83;;;;;;;4.52;80.29;94198.00;5111587;28;20544;-44
2021/11/19 06:16:00;;;;;;;32.63;19.90;;;;;;;4.51;80.31;94196.50;5111550;28;20496;-42
2021/11/19 06:18:33;;;;;;;35.65;20.42;;;;;;;4.63;79.87;94210.22;5093550;28;20078;-42
2021/11/19 06:21:03;;;;;;;29.98;17.95;;;;;;;4.63;79.98;94211.69;5111410;28;20034;-47
2021/11/19 06:23:36;;;;;;;29.38;19.10;;;;;;;4.64;79.51;94209.72;5091045;28;20467;-45
2021/11/19 06:26:04;;;;;;;29.80;20.13;;;;;;;4.60;79.07;94218.16;5110951;28;20027;-44
2021/11/19 06:28:33;;;;;;;29.98;19.92;;;;;;;4.61;79.30;94219.66;5092420;28;20157;-44
2021/11/19 06:31:00;;;;;;;25.88;18.67;;;;;;;4.58;79.98;94212.44;5110448;28;20032;-45
2021/11/19 06:33:26;;;;;;;27.30;18.95;;;;;;;4.68;79.66;94217.69;5109166;28;20511;-46
2021/11/19 06:35:51;;;;;;;31.17;21.00;;;;;;;4.70;79.67;94210.47;5110875;28;20045;-45
2021/11/19 06:38:18;;;;;;;29.55;20.40;;;;;;;4.78;79.02;94213.50;5110448;28;20119;-45
2021/11/19 06:40:44;;;;;;;28.75;19.83;;;;;;;4.83;78.42;94201.84;5110718;28;20028;-44
2021/11/19 06:43:10;;;;;;;32.08;20.75;;;;;;;4.84;78.12;94206.06;5109809;28;20031;-45
2021/11/19 06:45:36;;;;;;;33.33;25.02;;;;;;;4.66;77.67;94196.28;5109882;28;20056;-46
2021/11/19 06:48:05;;;;;;;31.48;21.98;;;;;;;4.72;78.66;94201.78;5110371;28;20046;-45
2021/11/19 06:50:34;;;;;;;30.20;18.77;;;;;;;4.86;78.44;94189.88;5109882;28;20023;-48
2021/11/19 06:53:00;;;;;;;;;;;;;;;5.04;78.27;94214.06;5110599;28;20503;-47
2021/11/19 06:55:26;;;;;;;33.80;16.35;;;;;;;5.03;78.39;94213.31;5109684;28;20003;-46
2021/11/19 06:57:52;;;;;;;21.27;14.38;;;;;;;5.01;77.48;94215.81;5109550;28;20031;-46
2021/11/19 07:00:30;;;;;;;32.53;15.32;;;;;;;5.16;78.12;94219.06;5109879;28;20023;-53
2021/11/19 07:02:56;;;;;;;18.85;14.43;;;;;;;5.25;77.67;94213.38;5109413;28;20031;-48
2021/11/19 07:05:22;;;;;;;21.83;14.13;;;;;;;5.35;76.50;94214.63;5109439;28;20497;-46
2021/11/19 07:07:48;;;;;;;22.55;15.25;;;;;;;5.28;77.06;94195.19;5109645;28;20028;-48
2021/11/19 07:10:15;;;;;;;21.35;15.02;;;;;;;5.45;76.81;94212.38;5109314;28;20706;-49
2021/11/19 07:12:41;;;;;;;19.42;14.70;;;;;;;5.57;75.90;94207.66;5109372;28;20039;-49
2021/11/19 07:15:10;;;;;;;18.17;12.43;;;;;;;5.80;75.76;94207.16;5109259;28;20028;-50
2021/11/19 07:17:37;;;;;;;19.63;14.57;;;;;;;6.07;75.16;94211.13;5109276;28;20036;-48
2021/11/19 07:20:05;;;;;;;19.20;14.55;;;;;;;6.29;74.27;94213.09;5109644;28;20138;-49
2021/11/19 07:22:31;;;;;;;19.55;13.02;;;;;;;6.44;73.46;94211.56;5096014;28;20055;-50
2021/11/19 07:24:56;;;;;;;18.95;14.40;;;;;;;6.39;73.49;94214.31;5102663;28;20066;-48
2021/11/19 07:27:22;;;;;;;16.50;12.02;;;;;;;6.46;73.08;94211.03;5109288;28;20676;-48
2021/11/19 07:29:47;;;;;;;15.60;11.57;;;;;;;6.53;72.45;94213.28;5106259;28;20103;-48
2021/11/19 07:32:13;;;;;;;18.23;12.68;;;;;;;6.63;71.74;94212.47;5104055;28;20023;-48
2021/11/19 07:34:39;;;;;;;14.60;11.75;;;;;;;6.66;71.50;94202.50;5090474;28;20027;-51
2021/11/19 07:37:05;;;;;;;17.52;11.02;;;;;;;6.63;71.32;94214.47;5109169;28;20054;-54
2021/11/19 07:39:31;;;;;;;14.75;12.18;;;;;;;6.66;71.17;94221.69;5108950;28;20412;-51
2021/11/19 07:41:56;;;;;;;20.77;14.02;;;;;;;6.60;70.69;94221.75;5109178;28;20036;-52
2021/11/19 07:44:22;;;;;;;53.97;26.98;;;;;;;6.52;71.57;94220.75;5107106;28;20019;-48
2021/11/19 07:46:47;;;;;;;110.32;48.58;;;;;;;6.64;71.68;94219.47;5092251;28;20209;-51
2021/11/19 07:49:13;;;;;;;111.50;46.22;;;;;;;6.83;71.35;94223.13;5088274;28;20031;-52
2021/11/19 07:51:43;;;;;;;127.75;53.50;;;;;;;6.86;70.68;94224.13;5088048;28;20016;-51
2021/11/19 07:54:09;;;;;;;131.75;58.25;;;;;;;6.81;71.03;94238.59;5088338;28;20028;-51
2021/11/19 07:56:36;;;;;;;107.70;53.50;;;;;;;6.65;71.37;94231.19;5088107;28;20489;-50
2021/11/19 07:59:25;;;;;;;38.22;22.58;;;;;;;6.59;71.71;94227.72;5097692;28;20634;-54
2021/11/19 08:01:53;;;;;;;53.05;27.48;;;;;;;6.39;71.55;94220.53;5108608;28;20106;-52
2021/11/19 08:04:19;;;;;;;53.05;25.50;;;;;;;6.41;72.47;94231.75;5108138;28;20028;-54
2021/11/19 08:06:45;;;;;;;52.38;25.58;;;;;;;6.36;72.52;94231.78;5108835;28;20415;-53
2021/11/19 08:09:11;;;;;;;42.05;24.40;;;;;;;6.47;72.58;94224.28;5108093;28;20019;-45
2021/11/19 08:11:37;;;;;;;31.60;18.38;;;;;;;6.59;72.08;94219.47;5108043;28;20024;-53
2021/11/19 08:14:04;;;;;;;28.33;18.30;;;;;;;6.45;72.95;94221.28;5108179;28;20035;-50
2021/11/19 08:16:38;;;;;;;46.15;26.35;;;;;;;6.55;72.93;94219.75;5108283;28;20032;-51
2021/11/19 08:19:04;;;;;;;47.97;25.73;;;;;;;6.60;73.02;94212.75;5089243;28;20024;-52
2021/11/19 08:21:30;;;;;;;22.98;16.25;;;;;;;6.54;73.37;94212.03;5090002;28;20051;-51
2021/11/19 08:23:59;;;;;;;20.95;14.38;;;;;;;6.45;72.60;94204.81;5108151;28;20051;-50
2021/11/19 08:26:27;;;;;;;;;;;;;;;6.63;72.37;94220.72;5108758;28;20042;-49
2021/11/19 08:28:52;;;;;;;31.20;16.88;;;;;;;6.57;72.58;94214.50;5108403;28;19912;-49
2021/11/19 08:31:20;;;;;;;39.38;27.80;;;;;;;6.61;72.39;94214.97;5107905;28;20091;-48
2021/11/19 08:33:50;;;;;;;39.50;27.33;;;;;;;6.67;71.86;94214.97;5109467;28;20027;-48
2021/11/19 08:36:18;;;;;;;29.88;20.67;;;;;;;6.65;71.25;94209.97;5110219;28;20030;-50
2021/11/19 08:38:44;;;;;;;26.25;18.10;;;;;;;6.72;70.74;94222.41;5110069;28;20080;-51
2021/11/19 08:41:11;;;;;;;25.48;19.52;;;;;;;6.82;70.67;94220.91;5109939;28;20036;-50
2021/11/19 08:43:40;;;;;;;24.27;16.42;;;;;;;6.72;70.75;94223.19;5109765;28;20110;-49
2021/11/19 08:46:08;;;;;;;23.05;17.08;;;;;;;6.67;70.69;94220.47;5097496;28;20131;-49
2021/11/19 08:48:34;;;;;;;20.20;15.43;;;;;;;6.64;71.08;94218.72;5108244;28;20051;-51
2021/11/19 08:51:02;;;;;;;20.75;15.00;;;;;;;6.57;70.27;94213.75;5109080;28;20024;-50
2021/11/19 08:53:28;;;;;;;22.45;16.17;;;;;;;6.61;71.63;94212.25;5108451;28;20103;-47
2021/11/19 08:55:56;;;;;;;26.02;15.27;;;;;;;6.69;70.71;94215.22;5108526;28;20602;-46
2021/11/19 08:58:26;;;;;;;21.02;14.85;;;;;;;6.68;70.63;94200.75;5108381;28;20454;-50
2021/11/19 09:00:54;;;;;;;24.27;15.23;;;;;;;6.77;70.95;94203.22;5107205;28;20019;-49
2021/11/19 09:03:20;;;;;;;22.05;13.70;;;;;;;6.76;70.40;94204.44;5088500;28;20055;-53
2021/11/19 09:05:49;;;;;;;24.27;15.23;;;;;;;6.78;70.51;94212.16;5108454;28;20062;-51
2021/11/19 09:08:16;;;;;;;;;;;;;;;6.90;70.25;94205.38;5109573;28;20416;-51
2021/11/19 09:10:42;;;;;;;24.60;15.45;;;;;;;6.83;69.53;94195.69;5108619;28;19908;-53
2021/11/19 09:13:08;;;;;;;22.60;15.02;;;;;;;6.82;69.33;94196.94;5108788;28;20012;-54
2021/11/19 09:15:34;;;;;;;24.10;16.10;;;;;;;6.71;69.13;94201.75;5109604;28;20418;-53
2021/11/19 09:18:02;;;;;;;26.80;16.50;;;;;;;6.60;70.02;94190.81;5109688;28;20019;-55
2021/11/19 09:20:41;;;;;;;26.17;17.10;;;;;;;6.72;69.44;94184.00;5108521;28;20260;-50
2021/11/19 09:23:09;;;;;;;23.38;14.57;;;;;;;6.78;69.54;94182.72;5091493;28;20523;-49
2021/11/19 09:25:36;;;;;;;35.20;21.37;;;;;;;6.80;69.54;94177.47;5109552;28;20509;-52
2021/11/19 09:28:03;;;;;;;28.55;20.25;;;;;;;6.85;69.12;94145.75;5109490;28;20030;-48
2021/11/19 09:30:36;;;;;;;29.35;18.63;;;;;;;7.05;67.73;94167.38;5111558;28;20020;-47
2021/11/19 09:33:04;;;;;;;23.27;14.57;;;;;;;7.06;67.71;94166.09;5114121;28;20016;-49
2021/11/19 09:35:32;;;;;;;22.58;14.38;;;;;;;7.11;66.50;94170.06;5113686;28;20034;-53
2021/11/19 09:37:58;;;;;;;20.05;13.38;;;;;;;6.94;66.83;94139.22;5113980;28;20076;-51
2021/11/19 09:40:33;;;;;;;23.25;15.50;;;;;;;6.92;66.53;94169.94;5113428;28;20016;-49
2021/11/19 09:43:18;;;;;;;25.42;15.05;;;;;;;6.74;66.59;94159.53;5113185;28;20019;-48
2021/11/19 09:46:19;;;;;;;22.55;14.35;;;;;;;6.70;66.44;94161.81;5113425;28;20516;-48
2021/11/19 09:49:07;;;;;;;20.83;14.52;;;;;;;6.50;66.93;94145.69;5050289;28;20035;-47
2021/11/19 09:51:33;;;;;;;19.20;13.87;;;;;;;6.56;67.19;94149.91;5110007;28;20111;-50
2021/11/19 09:54:07;;;;;;;17.85;13.45;;;;;;;6.53;67.56;94139.94;5113286;28;20139;-51
2021/11/19 09:56:37;;;;;;;20.88;15.60;;;;;;;6.70;67.90;94139.88;5113453;28;20106;-48
2021/11/19 09:59:13;;;;;;;27.35;17.20;;;;;;;6.74;67.99;94134.84;5113052;28;20118;-50
2021/11/19 10:02:07;;;;;;;17.77;13.13;;;;;;;6.79;67.32;94137.56;5113120;28;20115;-53
2021/11/19 10:04:47;;;;;;;22.83;15.77;;;;;;;6.76;65.72;94135.09;5112922;28;20096;-47
2021/11/19 10:07:21;;;;;;;22.80;13.38;;;;;;;6.69;66.80;94127.41;5113276;28;20397;-48
2021/11/19 10:10:00;;;;;;;18.30;12.85;;;;;;;6.71;67.36;94127.66;5113007;28;20073;-48
2021/11/19 10:13:03;;;;;;;17.65;12.27;;;;;;;6.75;66.94;94123.38;5094752;28;20027;-50
2021/11/19 10:15:47;;;;;;;18.98;13.27;;;;;;;6.88;66.51;94115.31;5094378;28;20031;-50
2021/11/19 10:18:27;;;;;;;20.65;13.70;;;;;;;6.86;67.49;94111.59;5112715;28;20059;-51
2021/11/19 10:21:03;;;;;;;21.52;13.43;;;;;;;6.84;66.49;94114.81;5094372;28;20059;-50
2021/11/19 10:23:34;;;;;;;17.50;12.57;;;;;;;6.86;66.30;94111.59;5112461;28;20028;-50
2021/11/19 10:26:20;;;;;;;16.98;12.25;;;;;;;6.70;65.17;94102.19;5112667;28;20050;-52
2021/11/19 10:28:49;;;;;;;16.65;13.00;;;;;;;6.76;64.95;94107.63;5094141;28;20519;-50
2021/11/19 10:31:20;;;;;;;17.98;11.88;;;;;;;6.71;66.27;94100.22;5093898;28;20031;-52
2021/11/19 10:34:28;;;;;;;17.15;12.93;;;;;;;6.55;65.52;94087.31;5112222;28;20026;-54
2021/11/19 10:37:16;;;;;;;16.40;11.10;;;;;;;6.55;66.29;94081.81;5098569;28;20093;-54
2021/11/19 10:40:02;;;;;;;15.93;10.40;;;;;;;6.65;65.70;94077.53;5111998;28;20028;-50
2021/11/19 10:42:46;;;;;;;17.00;12.27;;;;;;;6.87;65.95;94080.88;5111206;28;20128;-50
2021/11/19 10:45:24;;;;;;;15.50;11.10;;;;;;;6.85;65.39;94075.16;5111573;28;20514;-52
2021/11/19 10:47:49;;;;;;;13.80;10.57;;;;;;;6.92;65.08;94079.34;5111818;28;20023;-50
2021/11/19 10:50:33;;;;;;;16.70;11.48;;;;;;;6.94;65.08;94074.09;5111978;28;20110;-52
2021/11/19 10:53:12;;;;;;;14.52;9.80;;;;;;;6.84;65.15;94078.41;5111606;28;20100;-50
2021/11/19 10:56:04;;;;;;;15.98;10.57;;;;;;;6.91;65.34;94075.09;5111043;28;20512;-52
2021/11/19 10:59:09;;;;;;;14.10;10.35;;;;;;;6.86;63.93;94079.38;5093697;28;20039;-51
2021/11/19 11:01:41;;;;;;;15.00;10.25;;;;;;;6.83;64.46;94074.94;5111722;28;20159;-51
2021/11/19 11:04:15;;;;;;;17.08;11.98;;;;;;;6.95;64.63;94072.84;5093763;28;20047;-50
2021/11/19 11:06:42;;;;;;;25.13;15.55;;;;;;;7.00;64.64;94063.06;5111368;28;20035;-52
2021/11/19 11:09:30;;;;;;;21.13;13.65;;;;;;;7.05;64.62;94065.03;5111685;28;20028;-51
2021/11/19 11:12:00;;;;;;;16.25;10.95;;;;;;;7.06;64.08;94072.75;5091227;28;20028;-49
2021/11/19 11:14:31;;;;;;;17.52;10.20;;;;;;;6.99;64.00;94073.31;5090819;28;20724;-51
2021/11/19 11:17:01;;;;;;;14.15;8.70;;;;;;;7.00;63.16;94063.06;5091152;28;20076;-49
2021/11/19 11:19:29;;;;;;;11.75;8.25;;;;;;;6.98;63.93;94060.84;5090617;28;20505;-50
2021/11/19 11:21:54;;;;;;;10.27;7.28;;;;;;;7.04;62.85;94050.56;5091068;28;20102;-51
2021/11/19 11:24:22;;;;;;;10.20;7.18;;;;;;;7.04;62.25;94041.59;5091189;28;20127;-50
2021/11/19 11:27:24;;;;;;;16.23;10.90;;;;;;;7.15;64.01;94042.22;5091104;28;20055;-50
2021/11/19 11:29:53;;;;;;;8.68;6.45;;;;;;;7.13;61.68;94044.75;5100220;28;20156;-54
2021/11/19 11:32:52;;;;;;;12.90;9.25;;;;;;;7.21;61.66;94036.72;5111060;28;20076;-52
2021/11/19 11:35:43;;;;;;;27.58;12.43;;;;;;;7.22;61.06;94038.19;5085305;28;20080;-49
2021/11/19 11:38:28;;;;;;;15.27;8.93;;;;;;;7.30;61.42;94033.59;5111215;28;20088;-50
2021/11/19 11:41:01;;;;;;;10.25;6.85;;;;;;;7.35;61.89;94033.56;5111034;28;20091;-51